createdAt,value
2022-12-26T00:03:38.551Z,16.42
2022-12-26T00:08:44.936Z,14.81
2022-12-26T00:13:51.022Z,14.49
2022-12-26T00:18:57.223Z,15.85
2022-12-26T00:24:03.307Z,14.47
2022-12-26T00:29:09.684Z,16.73
2022-12-26T00:34:15.762Z,16.33
2022-12-26T00:39:22.027Z,17.78
2022-12-26T00:44:28.126Z,15.72
2022-12-26T00:50:12.162Z,15.52
2022-12-26T00:54:39.894Z,18.75
2022-12-26T00:59:46.231Z,27.15
2022-12-26T01:04:52.290Z,16.50
2022-12-26T01:09:58.438Z,18.14
2022-12-26T01:15:04.603Z,18.17
2022-12-26T01:20:10.760Z,17.56
2022-12-26T01:25:16.822Z,17.10
2022-12-26T01:30:22.979Z,18.50
2022-12-26T01:35:29.085Z,20.24
2022-12-26T01:40:35.468Z,17.61
2022-12-26T01:45:41.577Z,21.55
2022-12-26T01:50:47.758Z,17.60
2022-12-26T01:55:53.825Z,24.39
2022-12-26T02:01:00.071Z,21.70
2022-12-26T02:06:06.076Z,20.81
2022-12-26T02:11:12.350Z,19.82
2022-12-26T02:16:18.501Z,24.73
2022-12-26T02:21:24.733Z,26.18
2022-12-26T02:26:30.802Z,28.43
2022-12-26T02:31:37.115Z,21.08
2022-12-26T02:36:43.174Z,24.30
2022-12-26T02:41:49.398Z,26.81
2022-12-26T02:46:55.485Z,29.54
2022-12-26T02:52:01.748Z,22.27
2022-12-26T02:57:07.818Z,24.19
2022-12-26T03:02:14.056Z,25.25
2022-12-26T03:08:25.942Z,27.30
2022-12-26T03:13:32.086Z,23.51
2022-12-26T03:18:59.002Z,21.64
2022-12-26T03:23:44.043Z,17.82
2022-12-26T03:28:50.137Z,19.62
2022-12-26T03:33:56.441Z,15.92
2022-12-26T03:39:02.517Z,14.26
2022-12-26T03:44:08.854Z,15.01
2022-12-26T03:49:15.065Z,12.98
2022-12-26T03:54:21.226Z,12.72
2022-12-26T03:59:27.336Z,12.05
2022-12-26T04:04:33.503Z,13.40
2022-12-26T04:09:39.557Z,12.15
2022-12-26T04:14:45.949Z,12.75
2022-12-26T04:19:52.027Z,12.46
2022-12-26T04:24:58.148Z,13.60
2022-12-26T04:30:04.254Z,11.62
2022-12-26T04:35:10.467Z,13.03
2022-12-26T04:40:16.525Z,12.42
2022-12-26T04:45:22.719Z,11.42
2022-12-26T04:50:28.833Z,11.03
2022-12-26T04:55:35.151Z,12.63
2022-12-26T05:00:41.226Z,11.53
2022-12-26T05:05:47.564Z,11.66
2022-12-26T05:10:53.648Z,12.43
2022-12-26T05:15:59.813Z,12.65
2022-12-26T05:21:05.951Z,12.92
2022-12-26T05:26:12.174Z,11.92
2022-12-26T05:31:18.397Z,12.78
2022-12-26T05:36:24.429Z,13.51
2022-12-26T05:41:30.535Z,13.70
2022-12-26T05:46:36.797Z,13.51
2022-12-26T05:51:42.876Z,16.06
2022-12-26T05:56:49.606Z,15.73
2022-12-26T06:01:54.881Z,15.41
2022-12-26T06:07:00.924Z,17.67
2022-12-26T06:12:07.000Z,16.52
2022-12-26T06:17:13.141Z,19.46
2022-12-26T06:22:19.213Z,18.46
2022-12-26T06:27:25.371Z,19.59
2022-12-26T06:32:31.447Z,21.21
2022-12-26T06:37:37.632Z,20.08
2022-12-26T06:42:44.057Z,21.60
2022-12-26T06:47:50.206Z,21.43
2022-12-26T06:52:56.295Z,20.79
2022-12-26T06:58:02.574Z,20.53
2022-12-26T07:03:08.620Z,19.11
2022-12-26T07:08:14.758Z,20.57
2022-12-26T07:13:20.825Z,19.76
2022-12-26T07:18:27.002Z,19.08
2022-12-26T07:23:33.083Z,18.97
2022-12-26T07:28:39.239Z,18.73
2022-12-26T07:33:45.293Z,18.07
2022-12-26T07:40:02.321Z,21.79
2022-12-26T07:45:08.409Z,18.39
2022-12-26T07:50:14.620Z,16.48
2022-12-26T07:55:20.684Z,17.74
2022-12-26T08:00:26.846Z,16.86
2022-12-26T08:05:32.901Z,17.62
2022-12-26T08:10:39.149Z,15.50
2022-12-26T08:15:45.201Z,15.47
2022-12-26T08:20:51.400Z,14.99
2022-12-26T08:25:57.460Z,14.51
2022-12-26T08:31:03.678Z,15.72
2022-12-26T08:36:09.812Z,13.17
2022-12-26T08:41:16.050Z,14.66
2022-12-26T08:46:22.133Z,13.67
2022-12-26T08:51:28.446Z,14.51
2022-12-26T08:56:34.530Z,14.25
2022-12-26T09:01:40.783Z,14.18
2022-12-26T09:06:46.776Z,15.67
2022-12-26T09:11:53.041Z,15.68
2022-12-26T09:16:59.236Z,15.67
2022-12-26T09:22:05.315Z,14.96
2022-12-26T09:27:11.428Z,15.76
2022-12-26T09:32:17.615Z,14.26
2022-12-26T09:37:23.695Z,14.83
2022-12-26T09:42:29.891Z,14.42
2022-12-26T09:47:36.264Z,13.37
2022-12-26T09:52:42.387Z,12.84
2022-12-26T09:57:48.475Z,11.65
2022-12-26T10:02:54.746Z,11.48
2022-12-26T10:08:00.801Z,10.59
2022-12-26T10:13:06.964Z,10.40
2022-12-26T10:18:13.065Z,11.62
2022-12-26T10:23:19.293Z,9.91
2022-12-26T10:28:25.405Z,8.94
2022-12-26T10:33:31.573Z,7.72
2022-12-26T10:38:37.689Z,7.87
2022-12-26T10:43:43.866Z,6.30
2022-12-26T10:48:49.960Z,8.20
2022-12-26T10:53:56.131Z,6.00
2022-12-26T10:59:02.360Z,6.20
2022-12-26T11:04:08.538Z,6.40
2022-12-26T11:09:14.614Z,6.80
2022-12-26T11:14:20.779Z,5.43
2022-12-26T11:19:26.893Z,5.64
2022-12-26T11:24:33.139Z,8.73
2022-12-26T11:29:39.218Z,9.98
2022-12-26T11:34:45.381Z,4.39
2022-12-26T11:39:51.421Z,4.27
2022-12-26T11:44:57.638Z,3.95
2022-12-26T11:50:03.691Z,2.33
2022-12-26T11:55:09.872Z,2.50
2022-12-26T12:00:15.943Z,3.69
2022-12-26T12:05:22.237Z,4.93
2022-12-26T12:10:28.312Z,3.88
2022-12-26T12:15:34.778Z,4.65
2022-12-26T12:20:40.864Z,3.36
2022-12-26T12:25:46.670Z,3.45
2022-12-26T12:30:52.737Z,2.90
2022-12-26T12:35:58.890Z,3.88
2022-12-26T12:41:04.955Z,2.61
2022-12-26T12:46:11.294Z,3.18
2022-12-26T12:51:17.370Z,2.81
2022-12-26T12:56:23.524Z,3.79
2022-12-26T13:01:29.740Z,3.72
2022-12-26T13:06:35.845Z,4.30
2022-12-26T13:11:41.980Z,3.52
2022-12-26T13:16:48.209Z,4.41
2022-12-26T13:21:54.221Z,4.12
2022-12-26T13:27:00.383Z,2.80
2022-12-26T13:32:06.515Z,5.01
2022-12-26T13:37:12.602Z,3.15
2022-12-26T13:42:18.677Z,3.98
2022-12-26T13:47:24.845Z,4.99
2022-12-26T13:52:31.038Z,3.53
2022-12-26T13:57:37.312Z,12.28
2022-12-26T14:03:16.024Z,14.28
2022-12-26T14:07:49.273Z,6.66
2022-12-26T14:12:55.344Z,4.82
2022-12-26T14:18:01.509Z,4.30
2022-12-26T14:23:07.562Z,4.25
2022-12-26T14:28:13.728Z,6.08
2022-12-26T14:33:19.783Z,6.35
2022-12-26T14:38:25.914Z,6.10
2022-12-26T14:43:32.287Z,6.46
2022-12-26T14:48:38.488Z,5.95
2022-12-26T14:53:44.539Z,7.01
2022-12-26T14:58:51.531Z,6.29
2022-12-26T15:03:57.652Z,5.29
2022-12-26T15:09:03.887Z,6.16
2022-12-26T15:14:09.963Z,7.51
2022-12-26T15:19:16.099Z,7.01
2022-12-26T15:24:22.219Z,7.23
2022-12-26T15:29:28.499Z,5.00
2022-12-26T15:34:34.656Z,7.83
2022-12-26T15:39:40.937Z,6.55
2022-12-26T15:44:47.042Z,10.34
2022-12-26T15:49:53.238Z,7.83
2022-12-26T15:55:00.425Z,5.99
2022-12-26T16:00:06.673Z,5.55
2022-12-26T16:05:12.893Z,6.82
2022-12-26T16:10:19.109Z,7.03
2022-12-26T16:15:25.219Z,6.03
2022-12-26T16:20:31.453Z,7.02
2022-12-26T16:25:38.144Z,7.34
2022-12-26T16:30:43.400Z,6.44
2022-12-26T16:35:49.502Z,6.14
2022-12-26T16:40:56.457Z,6.89
2022-12-26T16:46:02.579Z,7.43
2022-12-26T16:51:08.736Z,5.11
2022-12-26T16:56:14.850Z,9.35
2022-12-26T17:01:21.041Z,5.58
2022-12-26T17:06:27.083Z,5.87
2022-12-26T17:11:33.326Z,6.65
2022-12-26T17:16:39.393Z,7.40
2022-12-26T17:21:45.620Z,7.02
2022-12-26T17:26:51.747Z,7.06
2022-12-26T17:31:57.872Z,5.74
2022-12-26T17:37:20.076Z,5.77
2022-12-26T17:42:09.715Z,6.30
2022-12-26T17:47:15.785Z,7.23
2022-12-26T17:52:21.991Z,7.77
2022-12-26T17:57:28.141Z,9.44
2022-12-26T18:02:34.347Z,6.79
2022-12-26T18:07:40.351Z,7.40
2022-12-26T18:12:46.511Z,6.84
2022-12-26T18:17:52.627Z,6.86
2022-12-26T18:22:58.792Z,6.12
2022-12-26T18:28:04.847Z,7.71
2022-12-26T18:33:11.070Z,6.56
2022-12-26T18:38:17.227Z,5.88
2022-12-26T18:43:23.411Z,7.49
2022-12-26T18:48:29.493Z,5.61
2022-12-26T18:53:35.743Z,5.86
2022-12-26T18:58:41.918Z,5.26
2022-12-26T19:03:48.324Z,6.41
2022-12-26T19:08:54.816Z,7.82
2022-12-26T19:14:00.977Z,6.68
2022-12-26T19:19:07.052Z,5.84
2022-12-26T19:24:13.288Z,7.23
2022-12-26T19:29:19.459Z,7.88
2022-12-26T19:34:25.756Z,4.75
2022-12-26T19:39:32.169Z,6.77
2022-12-26T19:44:38.524Z,5.23
2022-12-26T19:49:44.675Z,6.81
2022-12-26T19:54:51.728Z,6.64
2022-12-26T19:59:57.820Z,5.85
2022-12-26T20:05:04.712Z,4.58
2022-12-26T20:10:11.200Z,5.59
2022-12-26T20:15:17.962Z,8.09
2022-12-26T20:20:24.435Z,8.32
2022-12-26T20:25:31.061Z,5.58
2022-12-26T20:30:37.888Z,7.01
2022-12-26T20:35:44.648Z,4.10
2022-12-26T20:40:51.058Z,5.32
2022-12-26T20:45:59.768Z,6.11
2022-12-26T20:51:04.433Z,5.79
2022-12-26T20:56:11.122Z,6.08
2022-12-26T21:01:17.484Z,5.89
2022-12-26T21:06:24.285Z,4.97
2022-12-26T21:11:30.782Z,6.33
2022-12-26T21:16:37.630Z,4.79
2022-12-26T21:21:44.511Z,5.47
2022-12-26T21:26:51.083Z,5.78
2022-12-26T21:31:59.362Z,7.53
2022-12-26T21:37:06.333Z,6.40
2022-12-26T21:42:13.084Z,4.35
2022-12-26T21:47:19.620Z,6.33
2022-12-26T21:52:26.046Z,5.92
2022-12-26T21:57:32.719Z,3.83
2022-12-26T22:02:39.453Z,6.09
2022-12-26T22:07:46.179Z,5.32
2022-12-26T22:12:52.669Z,4.38
2022-12-26T22:17:59.652Z,7.19
2022-12-26T22:23:06.102Z,6.06
2022-12-26T22:28:16.586Z,4.52
2022-12-26T22:33:20.864Z,6.33
2022-12-26T22:38:27.680Z,4.80
2022-12-26T22:43:35.607Z,4.72
2022-12-26T22:48:42.583Z,4.29
2022-12-26T22:53:48.916Z,3.85
2022-12-26T22:58:55.430Z,4.53
2022-12-26T23:04:03.528Z,4.50
2022-12-26T23:09:09.664Z,3.33
2022-12-26T23:14:16.917Z,4.51
2022-12-26T23:19:23.454Z,5.32
2022-12-26T23:24:30.138Z,5.69
2022-12-26T23:29:37.227Z,2.60
2022-12-26T23:34:47.992Z,4.93
2022-12-26T23:39:44.122Z,5.52
2022-12-26T23:44:50.322Z,6.11
2022-12-26T23:49:56.744Z,5.23
2022-12-26T23:55:02.812Z,3.53
